createdAt,value
2019-05-18T00:01:06.732Z,9.60
2019-05-18T00:03:36.604Z,11.20
2019-05-18T00:06:06.427Z,10.17
2019-05-18T00:08:36.215Z,10.33
2019-05-18T00:11:06.102Z,9.57
2019-05-18T00:13:36.060Z,9.40
2019-05-18T00:16:05.830Z,10.93
2019-05-18T00:18:35.649Z,9.23
2019-05-18T00:21:06.694Z,8.67
2019-05-18T00:23:36.425Z,9.33
2019-05-18T00:26:06.260Z,11.00
2019-05-18T00:28:36.057Z,9.17
2019-05-18T00:31:05.802Z,10.13
2019-05-18T00:33:35.598Z,9.90
2019-05-18T00:36:05.605Z,10.70
2019-05-18T00:38:35.464Z,10.50
2019-05-18T00:41:05.233Z,7.73
2019-05-18T00:43:34.984Z,10.20
2019-05-18T00:46:05.094Z,9.33
2019-05-18T00:48:34.926Z,11.90
2019-05-18T00:51:04.749Z,9.50
2019-05-18T00:53:34.480Z,9.20
2019-05-18T00:56:04.272Z,9.93
2019-05-18T00:58:34.239Z,9.30
2019-05-18T01:01:03.930Z,9.40
2019-05-18T01:03:33.812Z,10.33
2019-05-18T01:06:03.646Z,9.80
2019-05-18T01:08:33.419Z,9.37
2019-05-18T01:11:03.374Z,11.40
2019-05-18T01:13:33.183Z,10.07
2019-05-18T01:16:03.060Z,9.90
2019-05-18T01:18:32.813Z,9.93
2019-05-18T01:21:02.708Z,10.37
2019-05-18T01:23:32.492Z,10.23
2019-05-18T01:26:02.268Z,9.17
2019-05-18T01:28:32.110Z,10.07
2019-05-18T01:31:01.929Z,9.97
2019-05-18T01:33:31.648Z,10.90
2019-05-18T01:36:01.427Z,11.17
2019-05-18T01:38:31.233Z,10.37
2019-05-18T01:41:01.082Z,11.03
2019-05-18T01:43:30.741Z,12.87
2019-05-18T01:46:00.494Z,9.63
2019-05-18T01:48:30.269Z,11.23
2019-05-18T01:51:00.061Z,11.13
2019-05-18T01:53:29.807Z,10.80
2019-05-18T01:56:02.074Z,10.53
2019-05-18T01:58:31.902Z,10.13
2019-05-18T02:01:01.691Z,9.77
2019-05-18T02:03:31.487Z,10.90
2019-05-18T02:06:01.254Z,10.17
2019-05-18T02:08:30.987Z,11.50
2019-05-18T02:11:00.710Z,10.03
2019-05-18T02:13:30.522Z,9.93
2019-05-18T02:16:00.329Z,11.17
2019-05-18T02:18:30.142Z,9.77
2019-05-18T02:20:59.883Z,10.20
2019-05-18T02:23:29.683Z,10.57
2019-05-18T02:25:59.480Z,12.53
2019-05-18T02:28:29.263Z,12.83
2019-05-18T02:30:59.103Z,11.80
2019-05-18T02:33:29.025Z,12.17
2019-05-18T02:35:58.795Z,14.23
2019-05-18T02:38:28.533Z,16.17
2019-05-18T02:40:58.263Z,12.97
2019-05-18T02:43:28.022Z,14.63
2019-05-18T02:45:57.814Z,14.83
2019-05-18T02:48:27.687Z,15.67
2019-05-18T02:50:57.323Z,14.90
2019-05-18T02:53:27.073Z,14.70
2019-05-18T02:55:56.939Z,17.73
2019-05-18T02:58:26.760Z,17.53
2019-05-18T03:00:56.451Z,20.93
2019-05-18T03:03:26.248Z,18.87
2019-05-18T03:05:56.783Z,15.87
2019-05-18T03:08:26.644Z,15.37
2019-05-18T03:10:56.466Z,19.27
2019-05-18T03:13:26.261Z,16.20
2019-05-18T03:15:56.034Z,19.03
2019-05-18T03:18:25.856Z,18.50
2019-05-18T03:20:55.687Z,15.53
2019-05-18T03:23:25.598Z,19.53
2019-05-18T03:25:55.395Z,17.77
2019-05-18T03:28:25.208Z,17.70
2019-05-18T03:30:55.008Z,20.87
2019-05-18T03:33:28.920Z,19.17
2019-05-18T03:35:56.172Z,18.97
2019-05-18T03:38:25.788Z,18.27
2019-05-18T03:40:55.534Z,20.47
2019-05-18T03:43:25.222Z,22.40
2019-05-18T03:45:55.167Z,19.13
2019-05-18T03:48:24.969Z,21.47
2019-05-18T03:50:54.706Z,21.07
2019-05-18T03:53:24.489Z,21.97
2019-05-18T03:55:54.315Z,18.97
2019-05-18T03:58:24.064Z,22.70
2019-05-18T04:00:53.931Z,21.73
2019-05-18T04:03:23.723Z,22.80
2019-05-18T04:05:53.507Z,23.67
2019-05-18T04:08:23.299Z,25.33
2019-05-18T04:10:52.986Z,23.97
2019-05-18T04:13:22.701Z,27.00
2019-05-18T04:15:52.511Z,24.50
2019-05-18T04:18:22.306Z,29.80
2019-05-18T04:20:52.119Z,25.67
2019-05-18T04:23:21.842Z,27.60
2019-05-18T04:25:51.630Z,27.63
2019-05-18T04:28:21.415Z,28.63
2019-05-18T04:30:51.245Z,30.10
2019-05-18T04:33:21.064Z,31.87
2019-05-18T04:35:50.911Z,29.10
2019-05-18T04:38:20.585Z,28.30
2019-05-18T04:40:50.498Z,30.93
2019-05-18T04:43:20.295Z,30.03
2019-05-18T04:45:50.112Z,31.80
2019-05-18T04:48:19.953Z,30.13
2019-05-18T04:50:49.680Z,31.07
2019-05-18T04:53:19.519Z,32.67
2019-05-18T04:55:49.241Z,29.27
2019-05-18T04:58:19.072Z,33.70
2019-05-18T05:00:48.832Z,31.50
2019-05-18T05:03:18.578Z,33.57
2019-05-18T05:05:49.664Z,34.57
2019-05-18T05:08:19.349Z,37.40
2019-05-18T05:10:49.096Z,34.53
2019-05-18T05:13:18.862Z,33.93
2019-05-18T05:15:48.716Z,34.37
2019-05-18T05:18:18.400Z,38.00
2019-05-18T05:20:50.686Z,35.03
2019-05-18T05:23:20.430Z,36.37
2019-05-18T05:25:50.206Z,34.97
2019-05-18T05:28:19.965Z,36.73
2019-05-18T05:30:49.749Z,32.93
2019-05-18T05:33:19.511Z,36.07
2019-05-18T05:35:49.255Z,34.67
2019-05-18T05:38:19.006Z,36.30
2019-05-18T05:40:48.842Z,36.77
2019-05-18T05:43:18.614Z,34.70
2019-05-18T05:45:48.387Z,39.90
2019-05-18T05:48:18.135Z,37.90
2019-05-18T05:50:47.996Z,37.30
2019-05-18T05:53:17.726Z,40.20
2019-05-18T05:55:47.565Z,37.90
2019-05-18T05:58:17.699Z,38.10
2019-05-18T06:00:47.569Z,40.37
2019-05-18T06:03:17.405Z,49.73
2019-05-18T06:05:47.180Z,38.57
2019-05-18T06:08:16.915Z,38.30
2019-05-18T06:10:46.749Z,40.30
2019-05-18T06:13:16.541Z,38.23
2019-05-18T06:15:46.410Z,36.20
2019-05-18T06:18:16.192Z,36.73
2019-05-18T06:20:51.664Z,35.87
2019-05-18T06:23:17.406Z,39.60
2019-05-18T06:25:47.129Z,36.50
2019-05-18T06:28:16.797Z,38.17
2019-05-18T06:30:46.556Z,37.80
2019-05-18T06:33:16.263Z,36.70
2019-05-18T06:35:45.977Z,37.50
2019-05-18T06:38:15.829Z,35.80
2019-05-18T06:40:45.614Z,38.60
2019-05-18T06:43:15.352Z,36.40
2019-05-18T06:45:45.204Z,38.57
2019-05-18T06:48:15.124Z,36.30
2019-05-18T06:50:45.033Z,43.50
2019-05-18T06:53:14.847Z,34.30
2019-05-18T06:55:45.094Z,36.93
2019-05-18T06:58:15.374Z,36.03
2019-05-18T07:00:45.138Z,37.23
2019-05-18T07:03:14.875Z,34.15
2019-05-18T07:05:44.696Z,32.63
2019-05-18T07:08:14.498Z,30.85
2019-05-18T07:10:44.246Z,30.72
2019-05-18T07:13:14.122Z,31.70
2019-05-18T07:15:43.950Z,29.55
2019-05-18T07:18:13.835Z,28.87
2019-05-18T07:20:43.477Z,26.37
2019-05-18T07:23:13.335Z,27.70
2019-05-18T07:25:43.100Z,24.25
2019-05-18T07:28:12.843Z,24.40
2019-05-18T07:30:42.570Z,23.12
2019-05-18T07:33:12.334Z,20.88
2019-05-18T07:35:42.154Z,21.95
2019-05-18T07:38:11.918Z,20.02
2019-05-18T07:40:41.692Z,20.08
2019-05-18T07:43:11.362Z,20.60
2019-05-18T07:45:41.188Z,22.42
2019-05-18T07:48:10.978Z,22.58
2019-05-18T07:50:40.821Z,21.73
2019-05-18T07:53:10.616Z,23.42
2019-05-18T07:55:40.374Z,21.68
2019-05-18T07:58:10.282Z,20.30
2019-05-18T08:00:39.994Z,20.20
2019-05-18T08:03:09.849Z,21.52
2019-05-18T08:05:39.515Z,21.25
2019-05-18T08:08:12.668Z,19.77
2019-05-18T08:10:44.917Z,19.87
2019-05-18T08:13:18.603Z,21.35
2019-05-18T08:15:50.468Z,21.82
2019-05-18T08:18:22.320Z,21.05
2019-05-18T08:20:54.394Z,19.87
2019-05-18T08:23:25.406Z,20.20
2019-05-18T08:25:55.632Z,19.65
2019-05-18T08:28:28.817Z,21.60
2019-05-18T08:30:58.504Z,24.82
2019-05-18T08:33:28.310Z,25.60
2019-05-18T08:35:58.136Z,22.27
2019-05-18T08:38:27.872Z,25.27
2019-05-18T08:40:57.596Z,23.15
2019-05-18T08:43:27.444Z,24.98
2019-05-18T08:45:57.329Z,25.23
2019-05-18T08:48:27.119Z,27.65
2019-05-18T08:50:59.170Z,23.32
2019-05-18T08:53:32.463Z,25.02
2019-05-18T08:56:07.874Z,26.95
2019-05-18T08:58:43.291Z,26.07
2019-05-18T09:01:15.952Z,26.33
2019-05-18T09:03:47.982Z,24.55
2019-05-18T09:06:21.129Z,23.35
2019-05-18T09:08:53.818Z,22.17
2019-05-18T09:11:25.404Z,23.05
2019-05-18T09:13:58.106Z,25.40
2019-05-18T09:16:31.651Z,23.47
2019-05-18T09:19:04.075Z,23.45
2019-05-18T09:21:33.878Z,25.12
2019-05-18T09:24:04.595Z,22.58
2019-05-18T09:26:34.364Z,24.12
2019-05-18T09:29:05.376Z,23.87
2019-05-18T09:31:40.290Z,25.57
2019-05-18T09:34:10.906Z,26.57
2019-05-18T09:36:44.771Z,26.97
2019-05-18T09:39:17.278Z,26.75
2019-05-18T09:41:48.763Z,23.30
2019-05-18T09:44:21.118Z,25.27
2019-05-18T09:46:53.188Z,26.97
2019-05-18T09:49:25.607Z,24.15
2019-05-18T09:52:00.180Z,23.80
2019-05-18T09:54:30.035Z,23.12
2019-05-18T09:56:59.818Z,23.47
2019-05-18T09:59:29.593Z,25.30
2019-05-18T10:01:59.314Z,23.80
2019-05-18T10:04:29.495Z,24.00
2019-05-18T10:06:59.187Z,22.67
2019-05-18T10:09:38.933Z,21.82
2019-05-18T10:12:03.202Z,22.73
2019-05-18T10:14:33.048Z,24.45
2019-05-18T10:17:03.144Z,19.75
2019-05-18T10:19:32.886Z,19.57
2019-05-18T10:22:02.750Z,20.48
2019-05-18T10:24:32.386Z,20.20
2019-05-18T10:27:02.092Z,21.57
2019-05-18T10:29:32.346Z,20.85
2019-05-18T10:32:06.063Z,21.27
2019-05-18T10:34:38.626Z,22.40
2019-05-18T10:37:11.930Z,22.58
2019-05-18T10:39:45.567Z,24.15
2019-05-18T10:42:20.037Z,23.12
2019-05-18T10:44:54.503Z,22.52
2019-05-18T10:47:27.854Z,18.80
2019-05-18T10:49:58.740Z,20.25
2019-05-18T10:52:28.887Z,18.75
2019-05-18T10:54:59.034Z,21.07
2019-05-18T10:57:30.528Z,21.20
2019-05-18T11:00:00.342Z,19.30
2019-05-18T11:02:33.540Z,19.57
2019-05-18T11:05:05.729Z,22.87
2019-05-18T11:07:35.946Z,21.73
2019-05-18T11:10:06.985Z,19.95
2019-05-18T11:12:36.723Z,21.20
2019-05-18T11:15:07.597Z,20.55
2019-05-18T11:17:37.372Z,19.55
2019-05-18T11:20:08.331Z,20.05
2019-05-18T11:22:38.168Z,21.95
2019-05-18T11:25:09.221Z,20.65
2019-05-18T11:27:41.518Z,20.05
2019-05-18T11:30:13.138Z,20.43
2019-05-18T11:32:42.965Z,20.20
2019-05-18T11:35:13.520Z,21.85
2019-05-18T11:37:43.270Z,21.35
2019-05-18T11:40:14.919Z,20.02
2019-05-18T11:42:44.694Z,22.10
2019-05-18T11:45:16.157Z,21.85
2019-05-18T11:47:45.885Z,20.77
2019-05-18T11:50:16.597Z,21.15
2019-05-18T11:52:46.380Z,22.17
2019-05-18T11:55:16.498Z,22.25
2019-05-18T11:57:46.365Z,19.50
2019-05-18T12:00:16.485Z,20.88
2019-05-18T12:02:46.255Z,21.60
2019-05-18T12:05:16.503Z,19.75
2019-05-18T12:07:46.366Z,20.77
2019-05-18T12:10:18.356Z,21.02
2019-05-18T12:12:47.719Z,22.77
2019-05-18T12:15:18.817Z,22.20
2019-05-18T12:17:48.605Z,19.45
2019-05-18T12:20:19.043Z,20.50
2019-05-18T12:22:48.854Z,20.95
2019-05-18T12:25:18.813Z,21.00
2019-05-18T12:27:48.606Z,20.27
2019-05-18T12:30:18.538Z,21.12
2019-05-18T12:32:48.378Z,20.68
2019-05-18T12:35:18.558Z,21.68
2019-05-18T12:37:48.305Z,24.82
2019-05-18T12:40:20.561Z,21.40
2019-05-18T12:42:50.317Z,21.48
2019-05-18T12:45:21.153Z,21.07
2019-05-18T12:47:50.958Z,23.42
2019-05-18T12:50:23.615Z,20.60
2019-05-18T12:52:53.453Z,20.88
2019-05-18T12:55:23.419Z,21.20
2019-05-18T12:57:53.235Z,21.27
2019-05-18T13:00:23.752Z,22.32
2019-05-18T13:02:53.560Z,21.42
2019-05-18T13:05:23.354Z,21.40
2019-05-18T13:07:53.023Z,24.63
2019-05-18T13:10:23.066Z,22.67
2019-05-18T13:12:52.868Z,20.97
2019-05-18T13:15:23.862Z,20.80
2019-05-18T13:17:53.617Z,21.30
2019-05-18T13:20:23.752Z,20.85
2019-05-18T13:22:53.549Z,27.73
2019-05-18T13:25:23.546Z,21.65
2019-05-18T13:27:53.362Z,20.85
2019-05-18T13:30:23.341Z,22.87
2019-05-18T13:32:53.196Z,21.48
2019-05-18T13:35:24.358Z,20.92
2019-05-18T13:37:54.122Z,20.60
2019-05-18T13:40:23.938Z,21.07
2019-05-18T13:42:53.712Z,22.70
2019-05-18T13:45:23.461Z,20.65
2019-05-18T13:47:53.170Z,22.25
2019-05-18T13:50:23.789Z,20.27
2019-05-18T13:52:53.497Z,21.05
2019-05-18T13:55:23.297Z,21.50
2019-05-18T13:57:52.931Z,22.10
2019-05-18T14:00:22.831Z,21.73
2019-05-18T14:02:52.632Z,21.65
2019-05-18T14:05:22.610Z,22.70
2019-05-18T14:07:52.571Z,21.15
2019-05-18T14:10:22.315Z,22.32
2019-05-18T14:12:52.068Z,23.15
2019-05-18T14:15:23.302Z,20.48
2019-05-18T14:17:53.214Z,22.77
2019-05-18T14:20:26.207Z,23.15
2019-05-18T14:22:54.498Z,21.10
2019-05-18T14:25:24.285Z,19.98
2019-05-18T14:27:54.167Z,21.17
2019-05-18T14:30:24.047Z,20.85
2019-05-18T14:32:53.774Z,21.02
2019-05-18T14:35:23.580Z,20.10
2019-05-18T14:37:53.449Z,20.80
2019-05-18T14:40:23.367Z,20.43
2019-05-18T14:42:53.166Z,23.25
2019-05-18T14:45:23.081Z,22.73
2019-05-18T14:47:52.882Z,21.48
2019-05-18T14:50:22.843Z,24.72
2019-05-18T14:52:52.667Z,19.82
2019-05-18T14:55:33.305Z,19.98
2019-05-18T14:57:53.865Z,21.35
2019-05-18T15:00:23.850Z,19.87
2019-05-18T15:02:55.008Z,22.05
2019-05-18T15:05:24.714Z,19.45
2019-05-18T15:07:54.484Z,20.48
2019-05-18T15:10:24.310Z,19.45
2019-05-18T15:12:54.159Z,18.77
2019-05-18T15:15:29.798Z,20.05
2019-05-18T15:18:02.213Z,19.95
2019-05-18T15:20:33.348Z,20.20
2019-05-18T15:23:07.211Z,19.27
2019-05-18T15:25:50.355Z,20.43
2019-05-18T15:28:17.305Z,19.20
2019-05-18T15:31:00.452Z,20.57
2019-05-18T15:33:45.630Z,18.35
2019-05-18T15:36:20.379Z,19.27
2019-05-18T15:38:53.114Z,17.90
2019-05-18T15:41:29.694Z,18.02
2019-05-18T15:44:09.751Z,17.62
2019-05-18T15:46:48.394Z,18.75
2019-05-18T15:49:18.111Z,19.40
2019-05-18T15:51:48.034Z,17.95
2019-05-18T15:54:17.727Z,19.85
2019-05-18T15:56:47.547Z,18.98
2019-05-18T15:59:21.138Z,20.00
2019-05-18T16:01:50.986Z,17.98
2019-05-18T16:04:20.701Z,18.57
2019-05-18T16:06:50.795Z,18.92
2019-05-18T16:09:20.680Z,21.05
2019-05-18T16:11:50.426Z,17.98
2019-05-18T16:14:20.187Z,19.35
2019-05-18T16:16:54.689Z,19.90
2019-05-18T16:19:21.449Z,17.67
2019-05-18T16:21:51.509Z,21.45
2019-05-18T16:24:23.862Z,20.10
2019-05-18T16:26:53.612Z,17.12
2019-05-18T16:29:23.360Z,19.52
2019-05-18T16:31:53.086Z,17.00
2019-05-18T16:34:22.887Z,17.42
2019-05-18T16:36:52.611Z,18.73
2019-05-18T16:39:22.410Z,16.20
2019-05-18T16:41:52.182Z,19.12
2019-05-18T16:44:22.023Z,17.48
2019-05-18T16:46:53.464Z,19.02
2019-05-18T16:49:35.031Z,16.90
2019-05-18T16:52:04.779Z,19.42
2019-05-18T16:54:34.627Z,19.65
2019-05-18T16:57:04.483Z,17.95
2019-05-18T16:59:37.322Z,15.83
2019-05-18T17:02:11.063Z,19.35
2019-05-18T17:04:47.425Z,20.85
2019-05-18T17:07:18.992Z,18.05
2019-05-18T17:09:50.005Z,16.27
2019-05-18T17:12:20.791Z,15.20
2019-05-18T17:14:57.146Z,18.23
2019-05-18T17:17:28.858Z,14.58
2019-05-18T17:20:01.078Z,15.15
2019-05-18T17:22:38.760Z,13.83
2019-05-18T17:25:13.758Z,19.15
2019-05-18T17:27:46.051Z,15.48
2019-05-18T17:30:16.959Z,16.20
2019-05-18T17:32:50.609Z,14.85
2019-05-18T17:35:23.495Z,14.53
2019-05-18T17:38:03.126Z,15.38
2019-05-18T17:40:34.494Z,16.30
2019-05-18T17:43:20.206Z,17.25
2019-05-18T17:45:52.852Z,15.20
2019-05-18T17:48:53.277Z,16.62
2019-05-18T17:51:26.806Z,17.70
2019-05-18T17:53:58.723Z,17.42
2019-05-18T17:56:34.158Z,17.12
2019-05-18T17:59:03.676Z,15.28
2019-05-18T18:01:35.209Z,15.80
2019-05-18T18:04:07.744Z,14.73
2019-05-18T18:06:37.838Z,15.75
2019-05-18T18:09:08.704Z,16.02
2019-05-18T18:11:38.526Z,15.68
2019-05-18T18:14:08.678Z,22.35
2019-05-18T18:16:38.474Z,16.80
2019-05-18T18:19:11.200Z,17.30
2019-05-18T18:21:45.098Z,18.02
2019-05-18T18:24:19.382Z,21.52
2019-05-18T18:26:58.955Z,16.95
2019-05-18T18:29:29.422Z,17.57
2019-05-18T18:32:09.914Z,17.57
2019-05-18T18:34:43.108Z,16.40
2019-05-18T18:37:17.393Z,20.35
2019-05-18T18:39:59.052Z,15.75
2019-05-18T18:42:28.834Z,16.48
2019-05-18T18:45:02.414Z,18.62
2019-05-18T18:47:43.085Z,16.07
2019-05-18T18:50:17.356Z,17.17
2019-05-18T18:52:50.985Z,19.37
2019-05-18T18:55:21.045Z,20.08
2019-05-18T18:57:53.841Z,18.00
2019-05-18T19:00:25.470Z,19.35
2019-05-18T19:02:57.945Z,17.80
2019-05-18T19:05:29.148Z,20.45
2019-05-18T19:08:02.311Z,24.80
2019-05-18T19:10:34.900Z,24.25
2019-05-18T19:13:08.564Z,21.17
2019-05-18T19:15:40.708Z,21.87
2019-05-18T19:18:15.043Z,20.95
2019-05-18T19:20:47.335Z,21.45
2019-05-18T19:23:27.143Z,17.65
2019-05-18T19:26:08.069Z,20.02
2019-05-18T19:28:40.960Z,19.00
2019-05-18T19:31:14.201Z,18.85
2019-05-18T19:33:53.741Z,18.65
2019-05-18T19:36:25.168Z,25.82
2019-05-18T19:39:00.253Z,18.55
2019-05-18T19:41:31.581Z,20.23
2019-05-18T19:44:02.419Z,18.50
2019-05-18T19:46:35.930Z,19.40
2019-05-18T19:49:07.719Z,17.25
2019-05-18T19:51:46.402Z,19.02
2019-05-18T19:54:19.759Z,15.98
2019-05-18T19:56:51.148Z,18.70
2019-05-18T19:59:23.586Z,17.10
2019-05-18T20:01:54.259Z,19.90
2019-05-18T20:04:24.053Z,16.20
2019-05-18T20:06:58.549Z,19.37
2019-05-18T20:09:31.457Z,18.30
2019-05-18T20:12:04.060Z,17.45
2019-05-18T20:14:37.807Z,16.50
2019-05-18T20:17:08.897Z,17.00
2019-05-18T20:19:45.301Z,17.35
2019-05-18T20:22:27.604Z,18.05
2019-05-18T20:24:57.392Z,16.30
2019-05-18T20:27:30.464Z,18.87
2019-05-18T20:30:00.231Z,17.20
2019-05-18T20:32:33.679Z,17.95
2019-05-18T20:35:11.922Z,17.35
2019-05-18T20:37:48.084Z,18.23
2019-05-18T20:40:19.487Z,20.05
2019-05-18T20:42:49.770Z,18.48
2019-05-18T20:45:25.086Z,16.42
2019-05-18T20:47:58.715Z,19.57
2019-05-18T20:50:37.186Z,22.15
2019-05-18T20:53:10.943Z,18.65
2019-05-18T20:55:43.958Z,20.50
2019-05-18T20:58:14.904Z,19.62
2019-05-18T21:00:45.693Z,19.35
2019-05-18T21:03:19.800Z,20.88
2019-05-18T21:05:51.387Z,19.75
2019-05-18T21:08:26.368Z,23.10
2019-05-18T21:10:59.686Z,19.92
2019-05-18T21:13:31.492Z,19.70
2019-05-18T21:16:01.309Z,20.85
2019-05-18T21:18:32.598Z,18.77
2019-05-18T21:21:12.823Z,22.22
2019-05-18T21:23:49.588Z,19.62
2019-05-18T21:26:25.941Z,20.77
2019-05-18T21:29:00.856Z,21.75
2019-05-18T21:31:55.735Z,22.85
2019-05-18T21:34:29.708Z,22.02
2019-05-18T21:37:03.627Z,21.30
2019-05-18T21:39:37.739Z,20.92
2019-05-18T21:42:08.730Z,23.10
2019-05-18T21:44:41.799Z,27.45
2019-05-18T21:47:16.975Z,22.27
2019-05-18T21:49:48.857Z,21.25
2019-05-18T21:52:22.455Z,24.15
2019-05-18T21:54:54.475Z,23.98
2019-05-18T21:57:29.043Z,24.15
2019-05-18T22:00:05.430Z,22.52
2019-05-18T22:02:39.830Z,26.70
2019-05-18T22:05:18.886Z,24.10
2019-05-18T22:07:58.243Z,23.15
2019-05-18T22:10:31.496Z,29.07
2019-05-18T22:13:06.277Z,23.23
2019-05-18T22:15:40.917Z,23.77
2019-05-18T22:18:23.940Z,29.02
2019-05-18T22:20:52.365Z,27.75
2019-05-18T22:23:25.765Z,25.57
2019-05-18T22:26:13.027Z,24.55
2019-05-18T22:28:47.979Z,26.00
2019-05-18T22:31:23.279Z,26.10
2019-05-18T22:33:56.349Z,26.97
2019-05-18T22:36:30.927Z,23.35
2019-05-18T22:39:00.731Z,23.52
2019-05-18T22:41:34.292Z,21.10
2019-05-18T22:44:07.359Z,25.40
2019-05-18T22:46:45.859Z,27.13
2019-05-18T22:49:35.018Z,24.87
2019-05-18T22:52:04.285Z,25.68
2019-05-18T22:54:35.753Z,27.17
2019-05-18T22:57:10.102Z,25.60
2019-05-18T22:59:43.789Z,22.93
2019-05-18T23:02:16.340Z,25.83
2019-05-18T23:04:55.421Z,24.80
2019-05-18T23:07:27.310Z,29.03
2019-05-18T23:10:03.199Z,28.07
2019-05-18T23:12:53.237Z,27.95
2019-05-18T23:15:30.086Z,27.15
2019-05-18T23:18:03.025Z,25.57
2019-05-18T23:20:37.919Z,25.33
2019-05-18T23:23:09.092Z,27.37
2019-05-18T23:26:01.412Z,28.17
2019-05-18T23:28:42.094Z,27.47
2019-05-18T23:31:20.515Z,26.40
2019-05-18T23:33:59.130Z,26.67
2019-05-18T23:36:51.489Z,27.10
2019-05-18T23:39:24.157Z,27.30
2019-05-18T23:41:57.951Z,27.50
2019-05-18T23:44:32.374Z,29.00
2019-05-18T23:47:01.458Z,29.77
2019-05-18T23:49:31.621Z,29.03
2019-05-18T23:52:04.705Z,30.37
2019-05-18T23:54:39.414Z,27.45
2019-05-18T23:57:10.518Z,28.40
2019-05-18T23:59:41.086Z,29.07
